Time;durP1;ratioP1;P1;durP2;ratioP2;P2;SDS_P1;SDS_P2;PMS_P1;PMS_P2;Temp;Humidity;BMP_temperature;BMP_pressure;BME280_temperature;BME280_humidity;BME280_pressure;Samples;Min_cycle;Max_cycle;Signal;HPM_P1;HPM_P2
2021/08/21 00:00:58;;;;;;;;;;;;;;;15.93;89.40;101817.09;5065777;28;19925;-50
2021/08/21 00:03:25;;;;;;;;;;;;;;;15.91;89.51;101813.75;5064587;28;19924;-50
2021/08/21 00:05:51;;;;;;;;;;;;;;;15.89;89.34;101815.63;5080064;28;19970;-47
2021/08/21 00:08:18;;;;;;;;;;;;;;;15.78;89.80;101810.25;5082002;28;20064;-49
2021/08/21 00:10:45;;;;;;;;;;;;;;;15.81;89.46;101812.69;5083317;28;19924;-49
2021/08/21 00:13:11;;;;;;;;;;;;;;;15.77;89.47;101813.84;5080961;28;19959;-47
2021/08/21 00:15:38;;;;;;;;;;;;;;;15.74;89.41;101806.13;5077465;28;19925;-58
2021/08/21 00:18:04;;;;;;;;;;;;;;;15.78;90.10;101808.41;5064799;28;20007;-57
2021/08/21 00:20:31;;;;;;;;;;;;;;;15.69;90.39;101809.94;5064568;28;20371;-57
2021/08/21 00:22:58;;;;;;;;;;;;;;;15.64;90.52;101812.06;5082292;28;19928;-58
2021/08/21 00:25:24;;;;;;;;;;;;;;;15.73;89.47;101810.56;5082206;28;19932;-57
2021/08/21 00:27:51;;;;;;;;;;;;;;;15.69;89.42;101807.28;5074477;28;19951;-57
2021/08/21 00:30:18;;;;;;;;;;;;;;;15.67;89.64;101811.00;5078921;28;19924;-58
2021/08/21 00:32:45;;;;;;;;;;;;;;;15.63;90.00;101806.88;5082755;28;20383;-57
2021/08/21 00:35:11;;;;;;;;;;;;;;;15.55;89.61;101812.72;5079602;28;20383;-58
2021/08/21 00:37:38;;;;;;;;;;;;;;;15.48;89.89;101814.13;5087244;28;19924;-58
2021/08/21 00:40:05;;;;;;;;;;;;;;;15.46;89.27;101816.00;5090926;28;19925;-58
2021/08/21 00:42:32;;;;;;;;;;;;;;;15.46;89.31;101806.28;5084626;28;19960;-58
2021/08/21 00:44:59;;;;;;;;;;;;;;;15.44;89.04;101813.47;5091185;28;20343;-58
2021/08/21 00:47:26;;;;;;;;;;;;;;;15.42;89.84;101806.59;5073212;28;19924;-58
2021/08/21 00:49:53;;;;;;;;;;;;;;;15.35;90.35;101804.38;5088547;28;19986;-58
2021/08/21 00:52:21;;;;;;;;;;;;;;;15.33;91.08;101805.44;5090516;28;20387;-57
2021/08/21 00:54:48;;;;;;;;;;;;;;;15.37;90.40;101799.81;5063060;28;20011;-57
2021/08/21 00:57:16;;;;;;;;;;;;;;;15.45;90.56;101801.09;5079551;28;20317;-57
2021/08/21 00:59:43;;;;;;;;;;;;;;;15.33;89.68;101794.84;5091255;28;19924;-57
2021/08/21 01:02:10;;;;;;;;;;;;;;;15.25;90.08;101799.84;5066551;28;19928;-57
2021/08/21 01:04:38;;;;;;;;;;;;;;;15.23;90.06;101797.28;5075413;28;19924;-58
2021/08/21 01:07:05;;;;;;;;;;;;;;;15.27;89.60;101798.78;5073681;28;19928;-46
2021/08/21 01:09:33;;;;;;;;;;;;;;;15.21;89.45;101793.88;5078007;28;19978;-46
2021/08/21 01:12:00;;;;;;;;;;;;;;;15.20;88.92;101797.50;5065291;28;20053;-46
2021/08/21 01:14:27;;;;;;;;;;;;;;;15.12;89.14;101800.69;5088964;28;20378;-46
2021/08/21 01:16:54;;;;;;;;;;;;;;;15.04;89.57;101798.56;5070521;28;20360;-46
2021/08/21 01:19:21;;;;;;;;;;;;;;;15.06;89.90;101797.63;5072016;28;20390;-47
2021/08/21 01:21:48;;;;;;;;;;;;;;;15.03;89.33;101799.50;5069434;28;20383;-48
2021/08/21 01:24:15;;;;;;;;;;;;;;;14.97;89.72;101799.94;5063376;28;19982;-46
2021/08/21 01:26:51;;;;;;;;;;;;;;;15.00;89.80;101796.25;5078012;28;20337;-58
2021/08/21 01:29:18;;;;;;;;;;;;;;;15.00;90.41;101801.53;5072590;28;19974;-58
2021/08/21 01:31:45;;;;;;;;;;;;;;;14.99;90.73;101800.66;5085354;28;20378;-58
2021/08/21 01:34:12;;;;;;;;;;;;;;;14.95;90.88;101799.19;5061811;28;19925;-58
2021/08/21 01:36:43;;;;;;;;;;;;;;;14.91;90.28;101804.81;5082862;28;20328;-57
2021/08/21 01:39:10;;;;;;;;;;;;;;;14.82;90.75;101800.97;5080401;28;19959;-58
2021/08/21 01:41:37;;;;;;;;;;;;;;;14.82;90.60;101798.31;5044959;28;19928;-57
2021/08/21 01:44:10;;;;;;;;;;;;;;;14.83;92.28;101794.72;5078812;28;19933;-58
2021/08/21 01:46:37;;;;;;;;;;;;;;;14.84;92.59;101789.31;5074524;28;19924;-56
2021/08/21 01:49:07;;;;;;;;;;;;;;;14.84;92.08;101793.78;5072088;28;19932;-57
2021/08/21 01:51:35;;;;;;;;;;;;;;;14.75;91.96;101802.34;5078337;28;19933;-57
2021/08/21 01:54:02;;;;;;;;;;;;;;;14.70;91.61;101795.56;5072581;28;19928;-57
2021/08/21 01:56:29;;;;;;;;;;;;;;;14.78;90.49;101788.88;5052677;28;19925;-58
2021/08/21 01:58:55;;;;;;;;;;;;;;;14.71;90.48;101788.47;5088532;28;20287;-58
2021/08/21 02:01:22;;;;;;;;;;;;;;;14.72;91.21;101799.91;5065830;28;20049;-57
2021/08/21 02:03:49;;;;;;;;;;;;;;;14.77;91.33;101795.16;5083413;28;20020;-58
2021/08/21 02:06:16;;;;;;;;;;;;;;;14.66;91.59;101788.78;5085283;28;20284;-58
2021/08/21 02:08:42;;;;;;;;;;;;;;;14.66;91.56;101793.25;5082207;28;19927;-54
2021/08/21 02:11:09;;;;;;;;;;;;;;;14.70;91.33;101797.38;5072394;28;19924;-46
2021/08/21 02:13:35;;;;;;;;;;;;;;;14.61;91.32;101797.97;5076383;28;19993;-58
2021/08/21 02:16:02;;;;;;;;;;;;;;;14.65;91.44;101796.84;5075603;28;19924;-58
2021/08/21 02:18:29;;;;;;;;;;;;;;;14.57;91.68;101794.66;5084906;28;19935;-58
2021/08/21 02:20:55;;;;;;;;;;;;;;;14.57;91.77;101797.31;5090377;28;19928;-58
2021/08/21 02:23:22;;;;;;;;;;;;;;;14.52;91.44;101791.50;5073027;28;20037;-58
2021/08/21 02:25:55;;;;;;;;;;;;;;;14.56;91.49;101790.34;5059594;28;19932;-58
2021/08/21 02:28:22;;;;;;;;;;;;;;;14.47;91.46;101793.59;5089242;28;19928;-58
2021/08/21 02:30:49;;;;;;;;;;;;;;;14.43;92.09;101794.75;5089547;28;19931;-58
2021/08/21 02:33:15;;;;;;;;;;;;;;;14.44;91.79;101797.28;5092059;28;19954;-58
2021/08/21 02:35:42;;;;;;;;;;;;;;;14.46;91.34;101797.19;5082593;28;19925;-58
2021/08/21 02:38:09;;;;;;;;;;;;;;;14.48;90.59;101796.13;5082704;28;19970;-58
2021/08/21 02:40:36;;;;;;;;;;;;;;;14.44;91.17;101799.06;5059795;28;19924;-58
2021/08/21 02:43:03;;;;;;;;;;;;;;;14.48;91.19;101795.25;5072418;28;19974;-58
2021/08/21 02:45:29;;;;;;;;;;;;;;;14.42;90.86;101793.88;5062119;28;20325;-58
2021/08/21 02:47:56;;;;;;;;;;;;;;;14.42;90.96;101796.53;5060289;28;19932;-58
2021/08/21 02:50:22;;;;;;;;;;;;;;;14.39;91.13;101790.63;5052800;28;19924;-57
2021/08/21 02:52:49;;;;;;;;;;;;;;;14.42;90.77;101791.22;5070053;28;19924;-57
2021/08/21 02:55:16;;;;;;;;;;;;;;;14.37;91.62;101786.25;5070956;28;19928;-58
2021/08/21 02:57:43;;;;;;;;;;;;;;;14.36;92.24;101792.50;5061127;28;19935;-58
2021/08/21 03:00:09;;;;;;;;;;;;;;;14.36;92.84;101795.13;5064153;28;19936;-57
2021/08/21 03:02:36;;;;;;;;;;;;;;;14.31;93.02;101778.72;5050640;28;20424;-44
2021/08/21 03:05:03;;;;;;;;;;;;;;;14.27;93.80;101787.81;5057368;28;19961;-44
2021/08/21 03:07:30;;;;;;;;;;;;;;;14.35;93.72;101788.16;5065070;28;19977;-44
2021/08/21 03:09:57;;;;;;;;;;;;;;;14.32;93.54;101782.22;5066858;28;19935;-57
2021/08/21 03:12:23;;;;;;;;;;;;;;;14.37;94.04;101782.78;5063232;28;19990;-57
2021/08/21 03:14:50;;;;;;;;;;;;;;;14.29;94.25;101785.91;5067488;28;19925;-57
2021/08/21 03:17:17;;;;;;;;;;;;;;;14.29;94.19;101791.22;5066900;28;19925;-57
2021/08/21 03:19:43;;;;;;;;;;;;;;;14.29;93.50;101791.22;5054568;28;19979;-57
2021/08/21 03:22:10;;;;;;;;;;;;;;;14.29;93.63;101791.22;5054147;28;19929;-57
2021/08/21 03:24:37;;;;;;;;;;;;;;;14.30;94.13;101797.34;5057513;28;20672;-57
2021/08/21 03:27:03;;;;;;;;;;;;;;;14.33;94.24;101797.16;5071324;28;19925;-58
2021/08/21 03:29:30;;;;;;;;;;;;;;;14.33;93.75;101791.88;5057491;28;19925;-58
2021/08/21 03:31:57;;;;;;;;;;;;;;;14.32;94.33;101788.34;5064353;28;20359;-58
2021/08/21 03:34:24;;;;;;;;;;;;;;;14.39;94.76;101790.63;5059961;28;20323;-58
2021/08/21 03:36:51;;;;;;;;;;;;;;;14.41;94.81;101792.22;5072733;28;19924;-57
2021/08/21 03:39:18;;;;;;;;;;;;;;;14.43;94.92;101797.41;5057199;28;19932;-58
2021/08/21 03:41:45;;;;;;;;;;;;;;;14.43;95.82;101789.47;5057096;28;19924;-58
2021/08/21 03:44:11;;;;;;;;;;;;;;;14.42;94.62;101793.88;5078539;28;19931;-58
2021/08/21 03:46:38;;;;;;;;;;;;;;;14.41;95.14;101786.91;5092759;28;19928;-58
2021/08/21 03:49:05;;;;;;;;;;;;;;;14.40;95.19;101787.84;5091391;28;19928;-58
2021/08/21 03:51:32;;;;;;;;;;;;;;;14.48;95.31;101787.31;5091637;28;19939;-58
2021/08/21 03:53:58;;;;;;;;;;;;;;;14.50;95.47;101783.63;5067934;28;19960;-57
2021/08/21 03:56:25;;;;;;;;;;;;;;;14.43;95.49;101782.34;5092527;28;19927;-57
2021/08/21 03:58:52;;;;;;;;;;;;;;;14.47;95.83;101783.84;5089141;28;19924;-57
2021/08/21 04:01:18;;;;;;;;;;;;;;;14.50;95.38;101785.44;5092740;28;19947;-57
2021/08/21 04:03:45;;;;;;;;;;;;;;;14.50;96.02;101782.78;5091799;28;19924;-57
2021/08/21 04:06:12;;;;;;;;;;;;;;;14.50;95.90;101782.78;5076886;28;19978;-58
2021/08/21 04:08:38;;;;;;;;;;;;;;;14.48;96.10;101780.25;5072727;28;19928;-58
2021/08/21 04:11:05;;;;;;;;;;;;;;;14.50;96.64;101780.16;5080941;28;19924;-57
2021/08/21 04:13:31;;;;;;;;;;;;;;;14.54;96.31;101779.81;5091652;28;19985;-57
2021/08/21 04:15:58;;;;;;;;;;;;;;;14.59;96.33;101792.78;5066516;28;19951;-58
2021/08/21 04:18:25;;;;;;;;;;;;;;;14.60;95.96;101789.19;5080179;28;20375;-58
2021/08/21 04:20:51;;;;;;;;;;;;;;;14.61;95.68;101785.56;5087814;28;19928;-57
2021/08/21 04:23:18;;;;;;;;;;;;;;;14.67;95.30;101787.84;5093047;28;19974;-58
2021/08/21 04:25:44;;;;;;;;;;;;;;;14.65;95.35;101787.06;5079910;28;19924;-58
2021/08/21 04:28:11;;;;;;;;;;;;;;;14.66;94.89;101786.13;5083935;28;20417;-57
2021/08/21 04:30:38;;;;;;;;;;;;;;;14.68;94.95;101788.69;5092528;28;19933;-57
2021/08/21 04:33:05;;;;;;;;;;;;;;;14.65;95.11;101776.50;5084725;28;19928;-57
2021/08/21 04:35:31;;;;;;;;;;;;;;;14.72;95.14;101781.38;5061634;28;19925;-57
2021/08/21 04:38:01;;;;;;;;;;;;;;;14.74;95.06;101784.75;5087377;28;19931;-57
2021/08/21 04:40:28;;;;;;;;;;;;;;;14.71;94.88;101785.81;5078758;28;19924;-57
2021/08/21 04:42:54;;;;;;;;;;;;;;;14.72;95.17;101781.38;5050594;28;20330;-58
2021/08/21 04:45:21;;;;;;;;;;;;;;;14.81;95.28;101784.25;5056982;28;19975;-57
2021/08/21 04:47:48;;;;;;;;;;;;;;;14.90;94.87;101779.28;5086691;28;19935;-58
2021/08/21 04:50:15;;;;;;;;;;;;;;;14.88;94.69;101784.69;5080984;28;20027;-58
2021/08/21 04:52:41;;;;;;;;;;;;;;;14.92;95.00;101791.47;5093812;28;19927;-58
2021/08/21 04:55:08;;;;;;;;;;;;;;;14.91;94.54;101784.47;5081460;28;20011;-57
2021/08/21 04:57:35;;;;;;;;;;;;;;;14.92;94.80;101783.50;5076134;28;20329;-57
2021/08/21 05:00:03;;;;;;;;;;;;;;;14.99;94.59;101789.25;5047165;28;19928;-57
2021/08/21 05:02:30;;;;;;;;;;;;;;;14.93;95.00;101793.16;5084235;28;20478;-57
2021/08/21 05:04:57;;;;;;;;;;;;;;;15.00;94.48;101790.94;5082749;28;19932;-58
2021/08/21 05:07:23;;;;;;;;;;;;;;;15.02;94.67;101799.63;5076225;28;19924;-57
2021/08/21 05:09:50;;;;;;;;;;;;;;;15.07;94.48;101792.22;5056785;28;19967;-57
2021/08/21 05:12:16;;;;;;;;;;;;;;;15.10;95.12;101797.28;5064655;28;19925;-57
2021/08/21 05:14:43;;;;;;;;;;;;;;;15.08;94.73;101791.25;5068481;28;20298;-57
2021/08/21 05:17:10;;;;;;;;;;;;;;;15.14;94.87;101795.28;5082203;28;19928;-57
2021/08/21 05:24:51;;;;;;;;;;;;;;;15.30;94.39;101800.38;5092177;28;20347;-57
2021/08/21 05:27:18;;;;;;;;;;;;;;;15.35;93.78;101798.22;5059454;28;19925;-57
2021/08/21 05:29:45;;;;;;;;;;;;;;;15.31;94.20;101804.69;5082450;28;19955;-47
2021/08/21 05:32:12;;;;;;;;;;;;;;;15.33;93.81;101795.69;5080824;28;19929;-46
2021/08/21 05:34:39;;;;;;;;;;;;;;;15.34;94.16;101800.03;5074668;28;19973;-43
2021/08/21 05:37:05;;;;;;;;;;;;;;;15.35;94.42;101799.09;5065818;28;19955;-57
2021/08/21 05:39:32;;;;;;;;;;;;;;;15.41;94.05;101795.16;5074109;28;19960;-57
2021/08/21 05:41:59;;;;;;;;;;;;;;;15.45;93.95;101795.78;5086870;28;19969;-57
2021/08/21 05:44:26;;;;;;;;;;;;;;;15.50;94.12;101798.94;5072951;28;19931;-57
2021/08/21 05:46:52;;;;;;;;;;;;;;;15.54;93.89;101795.97;5074405;28;19950;-58
2021/08/21 05:49:19;;;;;;;;;;;;;;;15.54;94.10;101792.47;5082371;28;20436;-58
2021/08/21 05:51:46;;;;;;;;;;;;;;;15.57;94.05;101796.69;5057946;28;19929;-58
2021/08/21 05:54:12;;;;;;;;;;;;;;;15.61;94.46;101796.38;5084485;28;19924;-58
2021/08/21 05:56:39;;;;;;;;;;;;;;;15.64;94.24;101803.28;5075975;28;20480;-57
2021/08/21 05:59:06;;;;;;;;;;;;;;;15.63;94.58;101805.06;5073510;28;19935;-58
2021/08/21 06:01:33;;;;;;;;;;;;;;;15.68;94.39;101802.09;5085013;28;19934;-58
2021/08/21 06:04:00;;;;;;;;;;;;;;;15.72;94.50;101804.41;5063391;28;19924;-58
2021/08/21 06:06:27;;;;;;;;;;;;;;;15.76;93.71;101809.50;5078797;28;19943;-58
2021/08/21 06:08:53;;;;;;;;;;;;;;;15.75;93.98;101813.09;5070203;28;19924;-58
2021/08/21 06:11:20;;;;;;;;;;;;;;;15.79;93.59;101815.44;5080462;28;20379;-58
2021/08/21 06:13:46;;;;;;;;;;;;;;;15.85;93.94;101809.69;5079333;28;19932;-58
2021/08/21 06:16:13;;;;;;;;;;;;;;;15.92;94.39;101819.88;5092727;28;19925;-58
2021/08/21 06:18:40;;;;;;;;;;;;;;;15.97;93.74;101813.28;5091826;28;19970;-58
2021/08/21 06:21:06;;;;;;;;;;;;;;;16.08;93.38;101815.16;5075702;28;19924;-58
2021/08/21 06:23:33;;;;;;;;;;;;;;;16.09;93.52;101816.84;5074663;28;19932;-58
2021/08/21 06:26:00;;;;;;;;;;;;;;;16.14;93.12;101814.72;5093335;28;19924;-57
2021/08/21 06:28:26;;;;;;;;;;;;;;;16.17;92.73;101821.56;5060727;28;19925;-57
2021/08/21 06:30:53;;;;;;;;;;;;;;;16.25;92.89;101827.16;5087759;28;19924;-57
2021/08/21 06:33:20;;;;;;;;;;;;;;;16.36;92.99;101827.22;5085612;28;19931;-57
2021/08/21 06:35:46;;;;;;;;;;;;;;;16.35;92.75;101824.69;5063761;28;19931;-58
2021/08/21 06:38:13;;;;;;;;;;;;;;;16.42;92.74;101823.28;5093910;28;19931;-57
2021/08/21 06:40:40;;;;;;;;;;;;;;;16.47;92.58;101825.56;5092229;28;20333;-57
2021/08/21 06:43:06;;;;;;;;;;;;;;;16.54;92.50;101826.81;5093546;28;19977;-57
2021/08/21 06:45:33;;;;;;;;;;;;;;;16.61;92.98;101820.09;5078435;28;19982;-57
2021/08/21 06:48:04;;;;;;;;;;;;;;;16.66;92.53;101828.56;5076970;28;19959;-57
2021/08/21 06:50:33;;;;;;;;;;;;;;;16.78;92.65;101828.56;5074301;28;19952;-57
2021/08/21 06:53:00;;;;;;;;;;;;;;;16.85;92.20;101827.13;5074374;28;20383;-57
2021/08/21 06:55:27;;;;;;;;;;;;;;;16.89;91.94;101824.19;5074089;28;19932;-57
2021/08/21 06:58:04;;;;;;;;;;;;;;;16.96;91.98;101829.00;5041303;28;19930;-57
2021/08/21 07:00:30;;;;;;;;;;;;;;;17.01;91.51;101825.03;5074196;28;19928;-58
2021/08/21 07:02:57;;;;;;;;;;;;;;;17.07;91.41;101821.06;5074270;28;20023;-58
2021/08/21 07:05:24;;;;;;;;;;;;;;;17.15;91.52;101820.47;5074068;28;19947;-58
2021/08/21 07:07:50;;;;;;;;;;;;;;;17.21;91.23;101820.00;5056308;28;19930;-58
2021/08/21 07:10:18;;;;;;;;;;;;;;;17.28;91.45;101823.84;5053509;28;19928;-58
2021/08/21 07:12:44;;;;;;;;;;;;;;;17.38;90.75;101824.84;5078770;28;20345;-58
2021/08/21 07:15:11;;;;;;;;;;;;;;;17.46;90.37;101815.41;5065450;28;19925;-59
2021/08/21 07:17:39;;;;;;;;;;;;;;;17.55;90.47;101817.34;5081061;28;19924;-58
2021/08/21 07:20:06;;;;;;;;;;;;;;;17.68;90.06;101815.41;5082230;28;19974;-59
2021/08/21 07:22:32;;;;;;;;;;;;;;;17.73;89.74;101818.50;5079314;28;19970;-59
2021/08/21 07:24:59;;;;;;;;;;;;;;;17.85;89.57;101826.50;5080522;28;19970;-58
2021/08/21 07:27:26;;;;;;;;;;;;;;;17.96;89.33;101830.97;5082048;28;20403;-59
2021/08/21 07:29:52;;;;;;;;;;;;;;;18.02;88.46;101820.66;5081528;28;20412;-59
2021/08/21 07:32:19;;;;;;;;;;;;;;;18.03;87.96;101822.34;5067476;28;19936;-58
2021/08/21 07:34:45;;;;;;;;;;;;;;;18.17;87.91;101817.72;5080546;28;19928;-59
2021/08/21 07:37:12;;;;;;;;;;;;;;;18.26;85.43;101816.13;5081208;28;19924;-59
2021/08/21 07:39:39;;;;;;;;;;;;;;;18.35;85.77;101810.03;5078656;28;19931;-59
2021/08/21 07:42:05;;;;;;;;;;;;;;;18.40;85.78;101813.16;5079271;28;19935;-56
2021/08/21 07:44:32;;;;;;;;;;;;;;;18.47;84.98;101816.16;5062451;28;19932;-59
2021/08/21 07:46:59;;;;;;;;;;;;;;;18.56;83.88;101807.41;5079496;28;19924;-59
2021/08/21 07:49:25;;;;;;;;;;;;;;;18.50;83.71;101810.56;5078627;28;19928;-59
2021/08/21 07:51:52;;;;;;;;;;;;;;;18.56;83.84;101810.91;5080550;28;19969;-59
2021/08/21 07:54:19;;;;;;;;;;;;;;;18.72;83.39;101810.47;5079385;28;19947;-51
2021/08/21 07:56:45;;;;;;;;;;;;;;;18.95;82.18;101813.03;5083548;28;19982;-52
2021/08/21 07:59:12;;;;;;;;;;;;;;;19.08;81.50;101808.31;5063533;28;20422;-47
2021/08/21 08:01:39;;;;;;;;;;;;;;;19.33;81.68;101816.00;5058141;28;19944;-46
2021/08/21 08:04:05;;;;;;;;;;;;;;;19.34;80.03;101815.03;5074352;28;20074;-46
2021/08/21 08:06:32;;;;;;;;;;;;;;;19.43;78.96;101807.06;5080533;28;19928;-48
2021/08/21 08:09:03;;;;;;;;;;;;;;;19.56;78.79;101811.31;5079433;28;19931;-49
2021/08/21 08:11:29;;;;;;;;;;;;;;;19.69;80.33;101811.91;5063934;28;19924;-49
2021/08/21 08:13:56;;;;;;;;;;;;;;;19.71;78.35;101817.13;5062593;28;19960;-49
2021/08/21 08:16:23;;;;;;;;;;;;;;;19.88;77.61;101813.00;5083350;28;19932;-45
2021/08/21 08:18:49;;;;;;;;;;;;;;;19.93;76.74;101819.59;5060014;28;20437;-47
2021/08/21 08:21:18;;;;;;;;;;;;;;;20.01;76.89;101816.22;5083096;28;20287;-46
2021/08/21 08:23:45;;;;;;;;;;;;;;;20.01;75.82;101810.88;5080152;28;19956;-55
2021/08/21 08:26:12;;;;;;;;;;;;;;;20.06;75.59;101813.16;5078034;28;19925;-48
2021/08/21 08:28:38;;;;;;;;;;;;;;;20.20;75.84;101810.06;5078185;28;19940;-53
2021/08/21 08:31:05;;;;;;;;;;;;;;;20.34;75.69;101816.81;5062661;28;19947;-49
2021/08/21 08:33:34;;;;;;;;;;;;;;;20.46;75.02;101814.00;5054358;28;19928;-52
2021/08/21 08:36:01;;;;;;;;;;;;;;;20.67;74.12;101816.50;5069757;28;19931;-49
2021/08/21 08:38:27;;;;;;;;;;;;;;;20.69;73.36;101815.41;5043167;28;19932;-52
2021/08/21 08:40:54;;;;;;;;;;;;;;;20.85;73.48;101817.50;5081233;28;19970;-50
2021/08/21 08:43:22;;;;;;;;;;;;;;;21.00;74.27;101820.56;5082185;28;20303;-51
2021/08/21 08:45:49;;;;;;;;;;;;;;;21.17;73.46;101816.25;5081760;28;20016;-53
2021/08/21 08:48:16;;;;;;;;;;;;;;;21.15;72.78;101817.44;5079441;28;19959;-50
2021/08/21 08:50:43;;;;;;;;;;;;;;;21.45;72.51;101819.00;5082937;28;19931;-49
2021/08/21 08:53:10;;;;;;;;;;;;;;;21.60;71.39;101819.38;5063429;28;20312;-51
2021/08/21 08:55:36;;;;;;;;;;;;;;;21.80;69.86;101821.91;5062975;28;19925;-54
2021/08/21 08:58:04;;;;;;;;;;;;;;;21.90;70.03;101817.38;5082047;28;19924;-50
2021/08/21 09:00:31;;;;;;;;;;;;;;;21.99;70.12;101818.28;5081129;28;20346;-52
2021/08/21 09:02:58;;;;;;;;;;;;;;;22.20;69.82;101820.69;5058836;28;19956;-51
2021/08/21 09:05:26;;;;;;;;;;;;;;;22.16;67.60;101814.78;5077174;28;19932;-53
2021/08/21 09:07:56;;;;;;;;;;;;;;;22.34;67.34;101812.09;5058016;28;19931;-54
2021/08/21 09:10:25;;;;;;;;;;;;;;;22.37;67.96;101816.31;5081354;28;19925;-49
2021/08/21 09:13:04;;;;;;;;;;;;;;;22.43;66.88;101813.03;5081099;28;20439;-58
2021/08/21 09:15:31;;;;;;;;;;;;;;;22.62;67.76;101820.06;5080317;28;19932;-58
2021/08/21 09:17:59;;;;;;;;;;;;;;;22.60;66.70;101812.16;5081818;28;19942;-59
2021/08/21 09:20:26;;;;;;;;;;;;;;;22.71;67.11;101811.06;5066178;28;19939;-59
2021/08/21 09:22:53;;;;;;;;;;;;;;;22.85;66.52;101811.47;5079915;28;19935;-60
2021/08/21 09:25:29;;;;;;;;;;;;;;;22.91;66.01;101800.97;5046181;28;19932;-58
2021/08/21 09:27:56;;;;;;;;;;;;;;;23.07;67.36;101805.59;5064088;28;20014;-58
2021/08/21 09:30:26;;;;;;;;;;;;;;;23.03;65.63;101801.56;5083266;28;21666;-58
2021/08/21 09:33:00;;;;;;;;;;;;;;;23.16;65.65;101801.13;5078665;28;19928;-59
2021/08/21 09:35:27;;;;;;;;;;;;;;;23.49;64.73;101805.81;5064216;28;19942;-59
2021/08/21 09:37:57;;;;;;;;;;;;;;;23.58;62.81;101810.22;5066069;28;19951;-59
2021/08/21 09:40:27;;;;;;;;;;;;;;;23.87;64.35;101803.56;5063872;28;20009;-59
2021/08/21 09:42:55;;;;;;;;;;;;;;;23.85;61.47;101800.22;5080625;28;19986;-59
2021/08/21 09:45:22;;;;;;;;;;;;;;;24.04;62.04;101791.88;5086908;28;19932;-59
2021/08/21 09:47:48;;;;;;;;;;;;;;;24.27;60.52;101792.06;5083452;28;19924;-59
2021/08/21 09:50:17;;;;;;;;;;;;;;;24.47;59.58;101794.41;5068360;28;20398;-59
2021/08/21 09:52:47;;;;;;;;;;;;;;;24.56;58.51;101798.78;5081907;28;19925;-60
2021/08/21 09:55:16;;;;;;;;;;;;;;;24.63;58.78;101785.53;5082670;28;19924;-58
2021/08/21 09:57:42;;;;;;;;;;;;;;;24.62;58.61;101789.22;5083725;28;20370;-58
2021/08/21 10:00:09;;;;;;;;;;;;;;;24.77;58.73;101787.53;5086904;28;19970;-58
2021/08/21 10:02:37;;;;;;;;;;;;;;;25.04;57.29;101784.59;5063812;28;20042;-59
2021/08/21 10:05:04;;;;;;;;;;;;;;;25.28;56.31;101781.81;5072033;28;19949;-59
2021/08/21 10:07:44;;;;;;;;;;;;;;;25.51;56.27;101780.22;5043972;28;19928;-59
2021/08/21 10:10:12;;;;;;;;;;;;;;;25.90;57.41;101782.00;5058340;28;19974;-58
2021/08/21 10:12:40;;;;;;;;;;;;;;;26.15;54.64;101777.28;5063602;28;20394;-59
2021/08/21 10:15:07;;;;;;;;;;;;;;;26.19;52.47;101778.63;5084194;28;20382;-58
2021/08/21 10:17:34;;;;;;;;;;;;;;;26.36;51.13;101779.31;5086436;28;19924;-59
2021/08/21 10:20:01;;;;;;;;;;;;;;;26.68;52.29;101777.31;5057975;28;19931;-59
2021/08/21 10:22:28;;;;;;;;;;;;;;;26.96;51.47;101776.72;5090132;28;19934;-59
2021/08/21 10:24:55;;;;;;;;;;;;;;;26.93;50.39;101772.53;5083429;28;19990;-59
2021/08/21 10:27:29;;;;;;;;;;;;;;;27.01;50.42;101774.31;5064624;28;19958;-59
2021/08/21 10:30:26;;;;;;;;;;;;;;;27.20;49.85;101774.75;5091910;28;19990;-59
2021/08/21 10:32:57;;;;;;;;;;;;;;;27.48;47.99;101778.44;5076552;28;19925;-59
2021/08/21 10:36:02;;;;;;;;;;;;;;;27.65;47.72;101767.41;5063351;28;19924;-59
2021/08/21 10:38:30;;;;;;;;;;;;;;;27.74;46.87;101771.66;5013897;28;19929;-60
2021/08/21 10:40:57;;;;;;;;;;;;;;;27.94;48.31;101769.16;5017158;28;19955;-59
2021/08/21 10:43:42;;;;;;;;;;;;;;;27.96;47.20;101767.13;5029012;28;19931;-59
2021/08/21 10:46:09;;;;;;;;;;;;;;;28.30;47.87;101773.66;5074206;28;19948;-59
2021/08/21 10:48:36;;;;;;;;;;;;;;;28.35;45.31;101767.69;5076292;28;20021;-59
2021/08/21 10:51:04;;;;;;;;;;;;;;;28.32;45.43;101763.50;5084589;28;19932;-59
2021/08/21 10:53:32;;;;;;;;;;;;;;;28.25;47.66;101773.44;5063414;28;19925;-59
2021/08/21 10:56:00;;;;;;;;;;;;;;;28.16;44.41;101772.72;5062045;28;19975;-58
2021/08/21 10:58:28;;;;;;;;;;;;;;;28.15;45.34;101765.66;5082353;28;19928;-59
2021/08/21 11:00:58;;;;;;;;;;;;;;;28.68;45.51;101756.28;5071774;28;20363;-59
2021/08/21 11:03:26;;;;;;;;;;;;;;;28.47;43.08;101755.28;5062517;28;20019;-58
2021/08/21 11:05:56;;;;;;;;;;;;;;;28.96;44.36;101755.38;5062782;28;19924;-59
2021/08/21 11:08:24;;;;;;;;;;;;;;;29.17;43.31;101754.44;5083347;28;20295;-59
2021/08/21 11:11:53;;;;;;;;;;;;;;;29.01;43.05;101752.91;5067089;28;19928;-58
2021/08/21 11:14:07;;;;;;;;;;;;;;;29.17;42.98;101755.28;5074196;28;19950;-59
2021/08/21 11:17:00;;;;;;;;;;;;;;;29.08;43.48;101751.09;5082351;28;19932;-59
2021/08/21 11:19:27;;;;;;;;;;;;;;;29.27;42.79;101749.53;5080287;28;19937;-60
2021/08/21 11:22:09;;;;;;;;;;;;;;;29.43;43.56;101745.59;5079710;28;19932;-60
2021/08/21 11:24:36;;;;;;;;;;;;;;;29.61;42.38;101739.59;5083247;28;20369;-58
2021/08/21 11:27:22;;;;;;;;;;;;;;;29.84;40.86;101738.41;5082907;28;20359;-58
2021/08/21 11:30:10;;;;;;;;;;;;;;;30.10;40.59;101731.34;5060053;28;19996;-58
2021/08/21 11:32:50;;;;;;;;;;;;;;;29.93;42.32;101736.38;5073914;28;19977;-59
2021/08/21 11:35:17;;;;;;;;;;;;;;;30.00;41.40;101742.63;5075600;28;19932;-59
2021/08/21 11:37:45;;;;;;;;;;;;;;;29.86;41.86;101735.50;5092913;28;19924;-59
2021/08/21 11:40:15;;;;;;;;;;;;;;;29.86;41.67;101740.94;5075794;28;19931;-59
2021/08/21 11:42:45;;;;;;;;;;;;;;;29.83;41.21;101732.16;5067575;28;20027;-59
2021/08/21 11:45:13;;;;;;;;;;;;;;;29.92;41.63;101729.25;5070345;28;20274;-59
2021/08/21 11:47:40;;;;;;;;;;;;;;;29.95;42.37;101737.78;5070842;28;19924;-59
2021/08/21 11:50:30;;;;;;;;;;;;;;;30.22;42.65;101729.66;5075544;28;19928;-60
2021/08/21 11:53:01;;;;;;;;;;;;;;;30.12;39.14;101726.53;5062307;28;20435;-59
2021/08/21 11:55:28;;;;;;;;;;;;;;;30.29;39.36;101721.53;5093235;28;19924;-59
2021/08/21 11:57:56;;;;;;;;;;;;;;;30.08;41.06;101711.72;5077335;28;19924;-59
2021/08/21 12:00:24;;;;;;;;;;;;;;;29.74;40.97;101716.31;5055543;28;19924;-59
2021/08/21 12:02:56;;;;;;;;;;;;;;;29.70;40.08;101718.56;5058377;28;20422;-59
2021/08/21 12:05:27;;;;;;;;;;;;;;;29.26;41.13;101709.94;5068412;28;19978;-59
2021/08/21 12:07:54;;;;;;;;;;;;;;;29.11;42.33;101706.50;5069088;28;20260;-59
2021/08/21 12:10:27;;;;;;;;;;;;;;;28.96;42.34;101710.22;5091964;28;20022;-59
2021/08/21 12:12:55;;;;;;;;;;;;;;;28.92;42.66;101705.38;5052731;28;20398;-59
2021/08/21 12:15:25;;;;;;;;;;;;;;;28.53;42.72;101704.13;5040131;28;20391;-59
2021/08/21 12:17:52;;;;;;;;;;;;;;;28.57;42.88;101700.00;5082070;28;19974;-59
2021/08/21 12:20:19;;;;;;;;;;;;;;;28.30;43.61;101697.94;5036002;28;19931;-59
2021/08/21 12:22:46;;;;;;;;;;;;;;;28.35;44.24;101694.66;5054838;28;20058;-59
2021/08/21 12:25:14;;;;;;;;;;;;;;;28.12;44.65;101686.81;5074220;28;19924;-59
2021/08/21 12:27:40;;;;;;;;;;;;;;;27.93;45.08;101694.50;5068839;28;20383;-60
2021/08/21 12:30:19;;;;;;;;;;;;;;;27.90;45.68;101684.09;5060944;28;19931;-59
2021/08/21 12:32:45;;;;;;;;;;;;;;;27.91;45.41;101691.19;5071857;28;19925;-59
2021/08/21 12:35:19;;;;;;;;;;;;;;;28.33;45.63;101680.50;5084764;28;19928;-59
2021/08/21 12:38:00;;;;;;;;;;;;;;;28.20;44.71;101688.53;5065857;28;20771;-60
2021/08/21 12:40:27;;;;;;;;;;;;;;;28.38;45.46;101683.44;5090087;28;20260;-60
2021/08/21 12:43:01;;;;;;;;;;;;;;;28.42;42.69;101686.59;5070766;28;19931;-59
2021/08/21 12:45:27;;;;;;;;;;;;;;;28.35;43.94;101681.13;5072776;28;20532;-60